Archival Weather

Rochelle Muni/Koritz Fld

Rochelle, Illinois (KRPJ)

Report from: Sunday, February 5, 2023 1:55 AM CST
Current time: Wednesday, May 29, 2024 3:05 AM CDT

Current weather – Weather history – Daily summaries
Weather forecast

Temperature0.9°C (33.6°F)
Wind chill-4.8°C (23.3°F)
Dew point-1.2°C (29.8°F)
Winds 14 kts (7.2 m/s, 16.1 mph) South-Southwest (210°)
Visibility10 mi. (16.1 km)
Clouds Sky clear
Altimeter29.86 in.Hg (1011 mB)
Relative humidity86 %
Density altitude-1,563 ft. (-477 m)
Remarks Fully automated report
Automated weather observing station with precipitation discriminator
Lightning detection system not operating
Flight conditions Visual Meteorological Conditions
Raw dataKRPJ 050755Z AUTO 21014KT 10SM CLR 01/M01 A2986 RMK AO2 T00091012 TSNO
An error has occurred. This application may no longer respond until reloaded. Reload 🗙